createdAt,value
2022-12-06T00:01:18.170Z,100545.66
2022-12-06T00:03:48.621Z,100624.09
2022-12-06T00:06:19.740Z,100617.94
2022-12-06T00:08:50.420Z,100589.72
2022-12-06T00:11:20.624Z,100605.59
2022-12-06T00:13:49.060Z,100613.53
2022-12-06T00:16:18.451Z,100615.28
2022-12-06T00:18:47.626Z,100611.78
2022-12-06T00:21:18.026Z,100603.84
2022-12-06T00:23:47.462Z,100616.19
2022-12-06T00:26:17.475Z,100554.44
2022-12-06T00:28:45.737Z,100587.97
2022-12-06T00:31:18.669Z,100597.66
2022-12-06T00:33:46.947Z,100581.84
2022-12-06T00:36:16.975Z,100601.22
2022-12-06T00:38:45.013Z,100461.13
2022-12-06T00:41:14.967Z,100556.25
2022-12-06T00:43:44.919Z,100584.47
2022-12-06T00:46:17.469Z,100588.00
2022-12-06T00:48:45.966Z,100595.91
2022-12-06T00:51:14.960Z,100586.22
2022-12-06T00:53:43.523Z,100588.00
2022-12-06T00:56:11.938Z,100589.75
2022-12-06T00:58:39.964Z,100573.88
2022-12-06T01:01:11.620Z,100591.53
2022-12-06T01:03:40.112Z,100586.25
2022-12-06T01:06:10.329Z,100591.53
2022-12-06T01:08:38.280Z,100593.28
2022-12-06T01:11:07.152Z,100594.16
2022-12-06T01:13:35.295Z,100592.38
2022-12-06T01:16:06.550Z,100588.88
2022-12-06T01:18:36.441Z,100592.41
2022-12-06T01:21:06.185Z,100595.03
2022-12-06T01:23:34.072Z,100591.53
2022-12-06T01:26:02.129Z,100593.28
2022-12-06T01:28:30.326Z,100561.53
2022-12-06T01:30:58.373Z,100530.69
2022-12-06T01:33:26.527Z,100565.06
2022-12-06T01:35:56.220Z,100586.22
2022-12-06T01:38:24.224Z,100498.13
2022-12-06T01:40:52.217Z,100558.06
2022-12-06T01:43:38.934Z,100588.00
2022-12-06T01:46:17.616Z,100586.25
2022-12-06T01:48:46.240Z,100574.78
2022-12-06T01:51:17.420Z,100579.19
2022-12-06T01:53:49.075Z,100581.84
2022-12-06T01:56:17.476Z,100587.97
2022-12-06T01:58:47.732Z,100579.19
2022-12-06T02:01:15.798Z,100576.53
2022-12-06T02:03:45.068Z,100577.44
2022-12-06T02:06:13.723Z,100454.09
2022-12-06T02:08:43.272Z,100519.28
2022-12-06T02:11:11.260Z,100568.59
2022-12-06T02:13:40.503Z,100572.13
2022-12-06T02:16:19.680Z,100563.31
2022-12-06T02:18:52.681Z,100561.56
2022-12-06T02:21:33.459Z,100567.75
2022-12-06T02:24:38.064Z,100559.81
2022-12-06T02:27:27.103Z,100562.47
2022-12-06T02:30:18.129Z,100560.69
2022-12-06T02:32:55.220Z,100539.53
2022-12-06T02:35:33.201Z,100506.94
2022-12-06T02:38:11.439Z,100551.88
2022-12-06T02:40:45.571Z,100540.41
2022-12-06T02:43:17.301Z,100530.69
2022-12-06T02:45:49.964Z,100537.78
2022-12-06T02:48:21.975Z,100551.88
2022-12-06T02:50:54.242Z,100538.66
2022-12-06T02:53:25.330Z,100548.34
2022-12-06T02:55:54.304Z,100466.41
2022-12-06T02:58:22.269Z,100554.53
2022-12-06T03:00:54.842Z,100527.19
2022-12-06T03:03:58.888Z,100556.22
2022-12-06T03:06:47.045Z,100429.34
2022-12-06T03:09:28.302Z,100489.25
2022-12-06T03:12:04.955Z,100541.25
2022-12-06T03:14:39.514Z,100495.47
2022-12-06T03:17:14.458Z,100547.44
2022-12-06T03:19:46.607Z,100535.97
2022-12-06T03:22:22.116Z,100529.81
2022-12-06T03:24:52.296Z,100549.16
2022-12-06T03:27:22.013Z,100447.81
2022-12-06T03:29:54.307Z,100547.34
2022-12-06T03:32:26.213Z,100547.34
2022-12-06T03:34:58.496Z,100492.72
2022-12-06T03:37:30.654Z,100551.75
2022-12-06T03:40:07.672Z,100543.84
2022-12-06T03:42:36.376Z,100536.81
2022-12-06T03:45:05.807Z,100536.84
2022-12-06T03:47:38.444Z,100544.72
2022-12-06T03:50:12.693Z,100540.31
2022-12-06T03:52:40.849Z,100528.00
2022-12-06T03:55:09.726Z,100541.22
2022-12-06T03:57:38.032Z,100476.06
2022-12-06T04:00:07.659Z,100518.34
2022-12-06T04:02:39.388Z,100515.72
2022-12-06T04:05:09.596Z,100530.69
2022-12-06T04:07:37.412Z,100525.41
2022-12-06T04:10:06.253Z,100524.53
2022-12-06T04:12:53.399Z,100525.41
2022-12-06T04:15:22.345Z,100517.47
2022-12-06T04:18:07.857Z,100528.94
2022-12-06T04:20:59.435Z,100528.94
2022-12-06T04:23:27.976Z,100499.84
2022-12-06T04:25:56.353Z,100521.00
2022-12-06T04:28:41.808Z,100523.69
2022-12-06T04:31:28.673Z,100518.38
2022-12-06T04:34:14.306Z,100453.22
2022-12-06T04:37:01.526Z,100504.28
2022-12-06T04:39:29.513Z,100502.50
2022-12-06T04:42:15.571Z,100510.47
2022-12-06T04:44:43.828Z,100506.94
2022-12-06T04:47:12.020Z,100507.81
2022-12-06T04:49:40.512Z,100512.22
2022-12-06T04:52:10.994Z,100513.09
2022-12-06T04:54:39.735Z,100499.00
2022-12-06T04:57:11.089Z,100445.28
2022-12-06T04:59:39.921Z,100506.94
2022-12-06T05:02:11.134Z,100410.91
2022-12-06T05:04:39.521Z,100486.63
2022-12-06T05:07:09.756Z,100503.41
2022-12-06T05:09:37.716Z,100408.31
2022-12-06T05:12:05.975Z,100496.38
2022-12-06T05:14:34.028Z,100485.81
2022-12-06T05:17:02.098Z,100511.34
2022-12-06T05:19:30.184Z,100507.78
2022-12-06T05:21:58.165Z,100471.72
2022-12-06T05:24:27.825Z,100476.09
2022-12-06T05:26:55.746Z,100410.09
2022-12-06T05:29:23.705Z,100500.78
2022-12-06T05:31:51.843Z,100498.16
2022-12-06T05:34:19.818Z,100497.25
2022-12-06T05:36:47.839Z,100500.78
2022-12-06T05:39:15.825Z,100447.03
2022-12-06T05:41:45.314Z,100499.91
2022-12-06T05:44:13.438Z,100497.25
2022-12-06T05:46:41.407Z,100481.41
2022-12-06T05:49:09.422Z,100495.47
2022-12-06T05:51:37.353Z,100481.41
2022-12-06T05:54:06.601Z,100486.69
2022-12-06T05:56:35.426Z,100484.06
2022-12-06T05:59:04.830Z,100462.91
2022-12-06T06:01:33.237Z,100479.66
2022-12-06T06:04:01.812Z,100436.47
2022-12-06T06:06:29.930Z,100411.84
2022-12-06T06:08:58.008Z,100477.00
2022-12-06T06:11:26.234Z,100482.28
2022-12-06T06:13:54.897Z,100480.53
2022-12-06T06:16:24.547Z,100476.13
2022-12-06T06:18:52.918Z,100477.00
2022-12-06T06:21:21.159Z,100480.50
2022-12-06T06:23:49.221Z,100430.31
2022-12-06T06:26:17.379Z,100477.00
2022-12-06T06:28:45.334Z,100481.41
2022-12-06T06:31:13.493Z,100481.41
2022-12-06T06:33:42.999Z,100462.03
2022-12-06T06:36:11.611Z,100449.72
2022-12-06T06:38:39.953Z,100440.88
2022-12-06T06:41:08.680Z,100495.47
2022-12-06T06:43:36.715Z,100491.97
2022-12-06T06:46:07.422Z,100490.19
2022-12-06T06:48:37.096Z,100493.69
2022-12-06T06:51:08.279Z,100499.88
2022-12-06T06:53:37.632Z,100498.13
2022-12-06T06:56:06.594Z,100495.47
2022-12-06T06:58:34.631Z,100494.56
2022-12-06T07:01:04.023Z,100486.66
2022-12-06T07:03:32.784Z,100484.03
2022-12-06T07:06:02.632Z,100390.72
2022-12-06T07:08:32.966Z,100496.38
2022-12-06T07:11:01.720Z,100496.34
2022-12-06T07:13:30.931Z,100508.69
2022-12-06T07:15:59.522Z,100505.16
2022-12-06T07:18:27.600Z,100499.91
2022-12-06T07:21:00.666Z,100494.59
2022-12-06T07:23:28.987Z,100501.66
2022-12-06T07:26:07.593Z,100498.13
2022-12-06T07:28:37.045Z,100385.47
2022-12-06T07:31:16.052Z,100506.94
2022-12-06T07:33:45.217Z,100505.16
2022-12-06T07:36:14.609Z,100506.94
2022-12-06T07:38:43.483Z,100476.13
2022-12-06T07:41:32.101Z,100489.28
2022-12-06T07:44:19.081Z,100521.03
2022-12-06T07:46:47.580Z,100515.72
2022-12-06T07:49:17.209Z,100510.47
2022-12-06T07:51:45.401Z,100434.75
2022-12-06T07:54:13.762Z,100519.25
2022-12-06T07:56:43.900Z,100513.09
2022-12-06T07:59:11.730Z,100517.50
2022-12-06T08:01:40.042Z,100491.09
2022-12-06T08:04:08.654Z,100491.06
2022-12-06T08:06:37.513Z,100519.25
2022-12-06T08:09:06.312Z,100513.06
2022-12-06T08:11:34.771Z,100520.16
2022-12-06T08:14:04.279Z,100521.88
2022-12-06T08:16:32.861Z,100526.31
2022-12-06T08:19:01.272Z,100528.09
2022-12-06T08:21:29.476Z,100516.66
2022-12-06T08:23:57.524Z,100532.50
2022-12-06T08:26:25.664Z,100536.00
2022-12-06T08:28:53.735Z,100511.34
2022-12-06T08:31:25.198Z,100543.06
2022-12-06T08:33:53.302Z,100543.91
2022-12-06T08:36:23.407Z,100535.13
2022-12-06T08:38:52.795Z,100541.28
2022-12-06T08:41:38.853Z,100548.34
2022-12-06T08:44:07.834Z,100545.66
2022-12-06T08:46:37.333Z,100539.47
2022-12-06T08:49:05.570Z,100540.38
2022-12-06T08:51:36.832Z,100537.72
2022-12-06T08:54:05.277Z,100542.09
2022-12-06T08:56:33.561Z,100538.59
2022-12-06T08:59:01.603Z,100543.00
2022-12-06T09:01:37.402Z,100535.09
2022-12-06T09:04:09.332Z,100546.56
2022-12-06T09:06:40.231Z,100547.41
2022-12-06T09:09:09.999Z,100537.72
2022-12-06T09:11:38.180Z,100519.25
2022-12-06T09:14:07.230Z,100550.97
2022-12-06T09:16:35.349Z,100549.19
2022-12-06T09:19:03.602Z,100555.34
2022-12-06T09:21:34.308Z,100556.25
2022-12-06T09:24:02.670Z,100526.31
2022-12-06T09:26:31.084Z,100555.38
2022-12-06T09:28:59.890Z,100556.22
2022-12-06T09:31:27.962Z,100557.97
2022-12-06T09:33:56.208Z,100528.88
2022-12-06T09:36:27.261Z,100542.13
2022-12-06T09:39:01.495Z,100503.38
2022-12-06T09:42:04.948Z,100565.00
2022-12-06T09:44:55.899Z,100557.94
2022-12-06T09:47:36.560Z,100555.28
2022-12-06T09:50:13.642Z,100545.59
2022-12-06T09:53:01.793Z,100545.63
2022-12-06T09:55:48.314Z,100547.38
2022-12-06T09:58:30.048Z,100537.72
2022-12-06T10:01:12.255Z,100425.00
2022-12-06T10:03:58.461Z,100545.59
2022-12-06T10:06:32.009Z,100521.78
2022-12-06T10:09:15.322Z,100541.94
2022-12-06T10:12:01.116Z,100541.97
2022-12-06T10:14:47.058Z,100489.13
2022-12-06T10:17:26.208Z,100531.31
2022-12-06T10:20:04.643Z,100530.44
2022-12-06T10:22:48.696Z,100527.78
2022-12-06T10:25:22.439Z,100523.34
2022-12-06T10:28:04.372Z,100518.03
2022-12-06T10:30:34.827Z,100520.66
2022-12-06T10:33:09.659Z,100495.09
2022-12-06T10:35:44.032Z,100510.03
2022-12-06T10:38:23.147Z,100451.03
2022-12-06T10:41:00.327Z,100478.31
2022-12-06T10:43:37.436Z,100457.25
2022-12-06T10:46:29.977Z,100497.69
2022-12-06T10:49:07.821Z,100499.50
2022-12-06T10:51:42.467Z,100390.41
2022-12-06T10:54:19.246Z,100495.06
2022-12-06T10:56:51.996Z,100444.91
2022-12-06T10:59:31.046Z,100499.44
2022-12-06T11:02:05.501Z,100496.78
2022-12-06T11:04:36.949Z,100459.84
2022-12-06T11:07:13.920Z,100500.22
2022-12-06T11:09:45.448Z,100503.81
2022-12-06T11:12:29.415Z,100489.63
2022-12-06T11:15:07.278Z,100488.66
2022-12-06T11:17:40.671Z,100491.34
2022-12-06T11:20:17.128Z,100490.50
2022-12-06T11:22:53.499Z,100493.09
2022-12-06T11:25:29.793Z,100487.81
2022-12-06T11:28:06.589Z,100468.44
2022-12-06T11:30:36.186Z,100498.41
2022-12-06T11:33:05.550Z,100479.88
2022-12-06T11:35:33.897Z,100481.56
2022-12-06T11:38:06.756Z,100481.50
2022-12-06T11:40:38.353Z,100484.25
2022-12-06T11:43:10.095Z,100480.78
2022-12-06T11:45:42.747Z,100469.34
2022-12-06T11:48:16.613Z,100478.09
2022-12-06T11:50:46.063Z,100482.44
2022-12-06T11:53:21.413Z,100436.66
2022-12-06T11:55:53.437Z,100453.38
2022-12-06T11:58:29.241Z,100484.16
2022-12-06T12:01:01.909Z,100441.97
2022-12-06T12:03:32.302Z,100477.03
2022-12-06T12:06:17.732Z,100480.69
2022-12-06T12:08:58.991Z,100471.81
2022-12-06T12:11:30.346Z,100471.88
2022-12-06T12:14:02.536Z,100476.22
2022-12-06T12:16:39.212Z,100422.69
2022-12-06T12:19:28.613Z,100475.31
2022-12-06T12:22:00.224Z,100474.50
2022-12-06T12:27:47.351Z,100456.81
2022-12-06T12:30:34.729Z,100367.22
2022-12-06T12:33:28.948Z,100470.84
2022-12-06T12:36:16.953Z,100463.72
2022-12-06T12:38:51.495Z,100353.09
2022-12-06T12:41:26.325Z,100465.44
2022-12-06T12:44:20.910Z,100451.41
2022-12-06T12:46:54.120Z,100456.72
2022-12-06T12:49:29.496Z,100469.00
2022-12-06T12:51:58.002Z,100467.28
2022-12-06T12:54:29.834Z,100380.25
2022-12-06T12:56:59.406Z,100416.22
2022-12-06T12:59:33.541Z,100460.09
2022-12-06T13:02:12.694Z,100233.44
2022-12-06T13:04:45.502Z,100451.25
2022-12-06T13:07:19.515Z,100457.41
2022-12-06T13:09:55.142Z,100446.72
2022-12-06T13:12:29.282Z,100456.38
2022-12-06T13:15:02.786Z,100457.31
2022-12-06T13:17:33.912Z,100460.06
2022-12-06T13:20:05.723Z,100458.28
2022-12-06T13:22:45.152Z,100458.22
2022-12-06T13:25:13.892Z,100459.94
2022-12-06T13:27:46.610Z,100358.91
2022-12-06T13:30:19.271Z,100454.72
2022-12-06T13:32:51.283Z,100438.84
2022-12-06T13:35:26.762Z,100454.72
2022-12-06T13:37:56.884Z,100441.66
2022-12-06T13:40:47.334Z,100454.66
2022-12-06T13:43:55.874Z,100449.50
2022-12-06T13:46:33.752Z,100451.25
2022-12-06T13:49:26.897Z,100440.69
2022-12-06T13:51:56.595Z,100455.63
2022-12-06T13:54:32.691Z,100453.00
2022-12-06T13:57:04.194Z,100459.09
2022-12-06T13:59:41.532Z,100441.53
2022-12-06T14:02:44.121Z,100452.91
2022-12-06T14:08:18.924Z,100355.53
2022-12-06T14:10:47.243Z,100457.47
2022-12-06T14:13:20.394Z,100434.56
2022-12-06T14:15:53.271Z,100458.31
2022-12-06T14:18:24.052Z,100448.66
2022-12-06T14:20:54.886Z,100452.22
2022-12-06T14:23:30.717Z,100445.28
2022-12-06T14:26:21.802Z,100449.75
2022-12-06T14:28:51.499Z,100451.53
2022-12-06T14:31:23.789Z,100443.59
2022-12-06T14:33:52.473Z,100420.69
2022-12-06T14:36:25.051Z,100448.78
2022-12-06T14:38:58.590Z,100447.88
2022-12-06T14:41:49.850Z,100447.00
2022-12-06T14:44:20.194Z,100439.09
2022-12-06T14:46:48.908Z,100446.97
2022-12-06T14:49:37.406Z,100395.19
2022-12-06T14:52:18.502Z,100429.34
2022-12-06T14:54:48.641Z,100444.34
2022-12-06T14:57:25.185Z,100408.31
2022-12-06T15:00:18.428Z,100443.47
2022-12-06T15:03:02.222Z,100443.44
2022-12-06T15:05:36.399Z,100425.06
2022-12-06T15:08:32.621Z,100442.59
2022-12-06T15:11:03.520Z,100435.63
2022-12-06T15:13:30.680Z,100415.38
2022-12-06T15:16:13.942Z,100454.06
2022-12-06T15:18:43.608Z,100455.84
2022-12-06T15:21:13.522Z,100456.69
2022-12-06T15:23:49.305Z,100461.91
2022-12-06T15:26:20.358Z,100441.78
2022-12-06T15:28:49.046Z,100451.41
2022-12-06T15:31:20.404Z,100457.56
2022-12-06T15:33:49.186Z,100454.94
2022-12-06T15:36:19.245Z,100460.25
2022-12-06T15:38:47.714Z,100469.13
2022-12-06T15:41:20.107Z,100470.91
2022-12-06T15:43:48.901Z,100450.66
2022-12-06T15:46:19.773Z,100451.53
2022-12-06T15:48:48.454Z,100442.66
2022-12-06T15:51:20.796Z,100436.63
2022-12-06T15:53:50.045Z,100457.75
2022-12-06T15:56:21.783Z,100461.25
2022-12-06T15:58:51.614Z,100456.78
2022-12-06T16:01:22.853Z,100436.56
2022-12-06T16:03:53.220Z,100444.47
2022-12-06T16:06:22.715Z,100446.31
2022-12-06T16:08:50.732Z,100422.53
2022-12-06T16:11:22.423Z,100440.06
2022-12-06T16:13:51.616Z,100426.88
2022-12-06T16:16:21.324Z,100427.81
2022-12-06T16:18:50.991Z,100436.53
2022-12-06T16:21:22.611Z,100434.78
2022-12-06T16:24:13.007Z,100413.53
2022-12-06T16:26:45.320Z,100396.88
2022-12-06T16:29:16.149Z,100308.94
2022-12-06T16:31:44.564Z,100418.72
2022-12-06T16:34:12.526Z,100415.16
2022-12-06T16:37:01.934Z,100424.03
2022-12-06T16:39:32.157Z,100329.97
2022-12-06T16:42:01.724Z,100434.81
2022-12-06T16:44:29.838Z,100366.19
2022-12-06T16:46:58.823Z,100440.00
2022-12-06T16:52:17.111Z,100438.16
2022-12-06T16:54:45.162Z,100385.41
2022-12-06T16:57:15.532Z,100434.69
2022-12-06T16:59:43.877Z,100389.00
2022-12-06T17:02:26.447Z,100434.63
2022-12-06T17:04:55.324Z,100427.75
2022-12-06T17:07:23.528Z,100418.94
2022-12-06T17:09:54.130Z,100418.91
2022-12-06T17:12:23.579Z,100423.31
2022-12-06T17:14:51.926Z,100425.88
2022-12-06T17:17:22.487Z,100433.81
2022-12-06T17:19:50.814Z,100441.75
2022-12-06T17:22:19.738Z,100422.44
2022-12-06T17:24:48.052Z,100396.03
2022-12-06T17:27:16.642Z,100409.22
2022-12-06T17:29:46.519Z,100432.13
2022-12-06T17:32:14.752Z,100424.22
2022-12-06T17:34:42.784Z,100385.50
2022-12-06T17:37:10.995Z,100424.19
2022-12-06T17:39:39.207Z,100420.72
2022-12-06T17:42:24.854Z,100413.75
2022-12-06T17:44:54.524Z,100323.25
2022-12-06T17:47:22.701Z,100364.56
2022-12-06T17:49:50.772Z,100412.06
2022-12-06T17:52:18.984Z,100427.06
2022-12-06T17:54:47.156Z,100415.63
2022-12-06T17:57:18.385Z,100375.25
2022-12-06T17:59:48.186Z,100418.34
2022-12-06T18:02:19.991Z,100429.00
2022-12-06T18:04:49.254Z,100417.59
2022-12-06T18:07:18.253Z,100366.50
2022-12-06T18:09:47.374Z,100401.69
2022-12-06T18:12:17.201Z,100389.44
2022-12-06T18:14:45.421Z,100422.00
2022-12-06T18:17:13.771Z,100436.06
2022-12-06T18:19:46.634Z,100436.97
2022-12-06T18:22:15.514Z,100436.09
2022-12-06T18:24:44.731Z,100421.13
2022-12-06T18:27:12.936Z,100421.13
2022-12-06T18:29:41.060Z,100349.13
2022-12-06T18:32:09.080Z,100429.97
2022-12-06T18:34:37.458Z,100432.63
2022-12-06T18:37:06.900Z,100432.66
2022-12-06T18:39:34.927Z,100429.16
2022-12-06T18:42:03.180Z,100433.66
2022-12-06T18:44:31.567Z,100436.31
2022-12-06T18:46:59.691Z,100438.88
2022-12-06T18:49:27.761Z,100439.75
2022-12-06T18:51:55.903Z,100408.09
2022-12-06T18:54:26.393Z,100424.78
2022-12-06T18:56:54.697Z,100411.66
2022-12-06T18:59:27.440Z,100433.63
2022-12-06T19:01:57.003Z,100309.66
2022-12-06T19:04:25.271Z,100409.00
2022-12-06T19:06:54.485Z,100428.34
2022-12-06T19:09:23.655Z,100422.16
2022-12-06T19:11:53.082Z,100420.38
2022-12-06T19:14:23.150Z,100406.34
2022-12-06T19:16:52.902Z,100412.47
2022-12-06T19:19:23.569Z,100423.03
2022-12-06T19:21:53.497Z,100414.16
2022-12-06T19:24:23.192Z,100405.47
2022-12-06T19:26:53.981Z,100402.81
2022-12-06T19:29:22.312Z,100404.50
2022-12-06T19:31:50.473Z,100408.03
2022-12-06T19:34:20.203Z,100410.66
2022-12-06T19:36:50.918Z,100393.00
2022-12-06T19:39:20.523Z,100405.41
2022-12-06T19:42:07.022Z,100394.84
2022-12-06T19:44:36.536Z,100384.31
2022-12-06T19:47:04.729Z,100374.63
2022-12-06T19:49:32.837Z,100375.44
2022-12-06T19:52:01.579Z,100360.50
2022-12-06T19:54:32.413Z,100393.00
2022-12-06T19:57:02.014Z,100360.47
2022-12-06T19:59:32.881Z,100393.88
2022-12-06T20:02:03.563Z,100396.50
2022-12-06T20:04:34.604Z,100395.63
2022-12-06T20:07:02.732Z,100371.91
2022-12-06T20:09:32.286Z,100386.81
2022-12-06T20:12:02.232Z,100390.41
2022-12-06T20:14:34.126Z,100386.00
2022-12-06T20:17:04.193Z,100335.91
2022-12-06T20:19:32.287Z,100241.03
2022-12-06T20:22:00.508Z,100320.97
2022-12-06T20:24:28.819Z,100371.06
2022-12-06T20:26:57.650Z,100385.94
2022-12-06T20:29:27.099Z,100379.88
2022-12-06T20:31:58.095Z,100374.56
2022-12-06T20:34:29.525Z,100380.72
2022-12-06T20:36:58.211Z,100373.63
2022-12-06T20:39:28.298Z,100355.09
2022-12-06T20:41:56.743Z,100377.09
2022-12-06T20:44:25.006Z,100335.72
2022-12-06T20:46:54.164Z,100351.47
2022-12-06T20:49:22.335Z,100355.88
2022-12-06T20:51:53.586Z,100348.81
2022-12-06T20:54:22.912Z,100349.78
2022-12-06T20:56:53.590Z,100347.06
2022-12-06T20:59:22.424Z,100351.50
2022-12-06T21:01:50.494Z,100347.06
2022-12-06T21:04:18.702Z,100342.66
2022-12-06T21:06:46.810Z,100343.47
2022-12-06T21:09:16.516Z,100233.56
2022-12-06T21:11:44.682Z,100333.81
2022-12-06T21:14:14.151Z,100346.06
2022-12-06T21:16:43.854Z,100337.22
2022-12-06T21:19:14.655Z,100338.13
2022-12-06T21:21:46.316Z,100339.00
2022-12-06T21:24:18.450Z,100128.25
2022-12-06T21:26:47.087Z,100336.38
2022-12-06T21:29:17.177Z,100292.47
2022-12-06T21:31:45.893Z,100317.94
2022-12-06T21:34:15.090Z,100225.66
2022-12-06T21:36:44.122Z,100334.63
2022-12-06T21:39:13.439Z,100330.94
2022-12-06T21:41:43.121Z,100330.97
2022-12-06T21:44:11.261Z,100219.41
2022-12-06T21:46:39.409Z,100317.63
2022-12-06T21:49:07.527Z,100329.97
2022-12-06T21:51:35.793Z,100305.38
2022-12-06T21:54:04.305Z,100319.34
2022-12-06T21:56:34.061Z,100319.38
2022-12-06T21:59:04.021Z,100327.34
2022-12-06T22:01:32.828Z,100322.88
2022-12-06T22:04:04.670Z,100274.53
2022-12-06T22:06:33.592Z,100300.91
2022-12-06T22:09:04.019Z,100304.38
2022-12-06T22:11:33.172Z,100322.06
2022-12-06T22:14:04.978Z,100320.31
2022-12-06T22:16:33.514Z,100318.53
2022-12-06T22:19:03.175Z,100314.06
2022-12-06T22:21:33.161Z,100318.50
2022-12-06T22:24:01.638Z,100304.47
2022-12-06T22:26:31.557Z,100301.81
2022-12-06T22:29:00.919Z,100315.00
2022-12-06T22:31:33.181Z,100300.88
2022-12-06T22:34:03.109Z,100292.91
2022-12-06T22:36:31.911Z,100309.50
2022-12-06T22:39:02.323Z,100306.00
2022-12-06T22:41:31.039Z,100304.28
2022-12-06T22:44:00.862Z,100306.16
2022-12-06T22:46:31.041Z,100297.31
2022-12-06T22:48:59.412Z,100287.66
2022-12-06T22:51:29.211Z,100294.75
2022-12-06T22:53:59.041Z,100282.44
2022-12-06T22:56:27.954Z,100281.50
2022-12-06T22:58:56.912Z,100156.03
2022-12-06T23:01:27.830Z,100293.78
2022-12-06T23:04:00.698Z,100299.06
2022-12-06T23:06:29.960Z,100296.38
2022-12-06T23:08:59.295Z,100274.34
2022-12-06T23:11:29.316Z,100237.41
2022-12-06T23:13:58.848Z,100162.75
2022-12-06T23:16:29.769Z,100283.03
2022-12-06T23:19:01.235Z,100274.16
2022-12-06T23:21:31.789Z,100274.16
2022-12-06T23:24:02.361Z,100269.75
2022-12-06T23:26:33.039Z,100223.19
2022-12-06T23:29:01.392Z,100271.50
2022-12-06T23:31:31.173Z,100268.88
2022-12-06T23:34:03.412Z,100176.75
2022-12-06T23:36:33.288Z,100232.09
2022-12-06T23:39:01.816Z,100230.25
2022-12-06T23:41:32.417Z,100254.06
2022-12-06T23:44:01.332Z,100254.91
2022-12-06T23:46:31.506Z,100257.59
2022-12-06T23:49:01.080Z,100260.22
2022-12-06T23:51:31.489Z,100247.91
2022-12-06T23:54:00.905Z,100249.56
2022-12-06T23:56:30.813Z,100246.09
2022-12-06T23:59:00.537Z,100230.22
